sensor_id;sensor_type;location;lat;lon;timestamp;pressure;altitude;pressure_sealevel;temperature;humidity
68107;BME280;54892;47.488;19.026;2022-09-27T00:00:01;98850.09;;;13.07;93.94
68107;BME280;54892;47.488;19.026;2022-09-27T00:03:05;98842.81;;;13.13;93.60
68107;BME280;54892;47.488;19.026;2022-09-27T00:06:11;98838.91;;;13.10;93.34
68107;BME280;54892;47.488;19.026;2022-09-27T00:09:15;98843.06;;;13.03;93.50
68107;BME280;54892;47.488;19.026;2022-09-27T00:12:19;98841.09;;;12.94;93.70
68107;BME280;54892;47.488;19.026;2022-09-27T00:15:23;98837.38;;;12.95;93.99
68107;BME280;54892;47.488;19.026;2022-09-27T00:18:26;98834.44;;;12.97;94.05
68107;BME280;54892;47.488;19.026;2022-09-27T00:21:29;98827.09;;;12.94;94.46
68107;BME280;54892;47.488;19.026;2022-09-27T00:24:33;98828.66;;;12.95;94.57
68107;BME280;54892;47.488;19.026;2022-09-27T00:27:37;98815.25;;;12.91;94.66
68107;BME280;54892;47.488;19.026;2022-09-27T00:30:42;98806.59;;;12.86;95.15
68107;BME280;54892;47.488;19.026;2022-09-27T00:33:45;98816.59;;;12.89;95.21
68107;BME280;54892;47.488;19.026;2022-09-27T00:36:48;98808.84;;;12.92;95.12
68107;BME280;54892;47.488;19.026;2022-09-27T00:39:52;98814.63;;;12.94;95.14
68107;BME280;54892;47.488;19.026;2022-09-27T00:42:56;98808.25;;;12.95;95.22
68107;BME280;54892;47.488;19.026;2022-09-27T00:46:02;98800.31;;;12.95;95.20
68107;BME280;54892;47.488;19.026;2022-09-27T00:49:12;98814.13;;;12.92;95.30
68107;BME280;54892;47.488;19.026;2022-09-27T00:52:20;98805.53;;;12.87;95.58
68107;BME280;54892;47.488;19.026;2022-09-27T00:55:29;98795.47;;;12.75;96.48
68107;BME280;54892;47.488;19.026;2022-09-27T00:58:36;98799.22;;;12.97;94.72
68107;BME280;54892;47.488;19.026;2022-09-27T01:01:43;98793.62;;;12.98;94.65
68107;BME280;54892;47.488;19.026;2022-09-27T01:04:47;98793.56;;;12.89;95.35
68107;BME280;54892;47.488;19.026;2022-09-27T01:07:51;98789.94;;;12.85;95.76
68107;BME280;54892;47.488;19.026;2022-09-27T01:11:13;98793.09;;;12.87;95.83
68107;BME280;54892;47.488;19.026;2022-09-27T01:14:27;98784.66;;;12.85;95.81
68107;BME280;54892;47.488;19.026;2022-09-27T01:17:43;98778.09;;;12.83;96.07
68107;BME280;54892;47.488;19.026;2022-09-27T01:21:09;98778.88;;;12.83;96.02
68107;BME280;54892;47.488;19.026;2022-09-27T01:28:19;98776.53;;;12.82;95.90
68107;BME280;54892;47.488;19.026;2022-09-27T01:31:32;98774.91;;;12.72;96.07
68107;BME280;54892;47.488;19.026;2022-09-27T01:34:42;98772.59;;;12.56;96.86
68107;BME280;54892;47.488;19.026;2022-09-27T01:37:53;98768.97;;;12.52;97.50
68107;BME280;54892;47.488;19.026;2022-09-27T01:41:05;98764.25;;;12.49;97.80
68107;BME280;54892;47.488;19.026;2022-09-27T01:44:19;98759.19;;;12.53;97.74
68107;BME280;54892;47.488;19.026;2022-09-27T01:47:31;98758.44;;;12.61;97.50
68107;BME280;54892;47.488;19.026;2022-09-27T01:50:39;98748.63;;;12.61;97.05
68107;BME280;54892;47.488;19.026;2022-09-27T01:53:46;98741.91;;;12.55;97.10
68107;BME280;54892;47.488;19.026;2022-09-27T01:56:53;98738.34;;;12.60;96.85
68107;BME280;54892;47.488;19.026;2022-09-27T02:00:00;98738.84;;;12.62;96.48
68107;BME280;54892;47.488;19.026;2022-09-27T02:03:10;98731.00;;;12.57;96.04
68107;BME280;54892;47.488;19.026;2022-09-27T02:06:18;98724.22;;;12.42;96.12
68107;BME280;54892;47.488;19.026;2022-09-27T02:09:25;98725.16;;;12.46;96.33
68107;BME280;54892;47.488;19.026;2022-09-27T02:12:34;98721.63;;;12.51;96.03
68107;BME280;54892;47.488;19.026;2022-09-27T02:15:48;98723.47;;;12.50;95.82
68107;BME280;54892;47.488;19.026;2022-09-27T02:19:10;98714.69;;;12.41;95.77
68107;BME280;54892;47.488;19.026;2022-09-27T02:22:18;98720.09;;;12.36;95.82
68107;BME280;54892;47.488;19.026;2022-09-27T02:25:27;98724.00;;;12.38;95.84
68107;BME280;54892;47.488;19.026;2022-09-27T02:28:36;98731.34;;;12.41;95.67
68107;BME280;54892;47.488;19.026;2022-09-27T02:31:41;98729.69;;;12.31;95.61
68107;BME280;54892;47.488;19.026;2022-09-27T02:34:46;98719.53;;;12.25;95.47
68107;BME280;54892;47.488;19.026;2022-09-27T02:37:54;98714.25;;;12.25;95.69
68107;BME280;54892;47.488;19.026;2022-09-27T02:40:58;98715.84;;;12.12;95.78
68107;BME280;54892;47.488;19.026;2022-09-27T02:44:03;98716.12;;;12.10;96.20
68107;BME280;54892;47.488;19.026;2022-09-27T02:47:20;98708.19;;;12.10;96.19
68107;BME280;54892;47.488;19.026;2022-09-27T02:50:41;98711.31;;;12.12;95.79
68107;BME280;54892;47.488;19.026;2022-09-27T02:53:57;98704.19;;;12.13;95.53
68107;BME280;54892;47.488;19.026;2022-09-27T02:57:11;98699.97;;;12.12;95.38
68107;BME280;54892;47.488;19.026;2022-09-27T03:00:19;98699.50;;;12.10;95.04
68107;BME280;54892;47.488;19.026;2022-09-27T03:03:26;98703.69;;;12.11;94.93
68107;BME280;54892;47.488;19.026;2022-09-27T03:06:38;98708.69;;;12.12;94.83
68107;BME280;54892;47.488;19.026;2022-09-27T03:09:46;98695.09;;;12.05;94.63
68107;BME280;54892;47.488;19.026;2022-09-27T03:12:50;98697.63;;;11.96;94.47
68107;BME280;54892;47.488;19.026;2022-09-27T03:15:54;98688.63;;;11.83;94.63
68107;BME280;54892;47.488;19.026;2022-09-27T03:18:59;98688.13;;;11.81;94.70
68107;BME280;54892;47.488;19.026;2022-09-27T03:22:04;98692.34;;;11.82;94.86
68107;BME280;54892;47.488;19.026;2022-09-27T03:25:08;98686.75;;;11.84;94.85
68107;BME280;54892;47.488;19.026;2022-09-27T03:28:11;98685.66;;;11.85;94.73
68107;BME280;54892;47.488;19.026;2022-09-27T03:31:15;98678.81;;;11.84;94.79
68107;BME280;54892;47.488;19.026;2022-09-27T03:34:18;98684.31;;;11.73;95.10
68107;BME280;54892;47.488;19.026;2022-09-27T03:37:24;98692.25;;;11.73;95.28
68107;BME280;54892;47.488;19.026;2022-09-27T03:40:30;98693.81;;;11.75;95.21
68107;BME280;54892;47.488;19.026;2022-09-27T03:43:33;98682.94;;;11.76;95.27
68107;BME280;54892;47.488;19.026;2022-09-27T03:46:36;98685.97;;;11.83;95.06
68107;BME280;54892;47.488;19.026;2022-09-27T03:49:40;98686.56;;;11.94;94.89
68107;BME280;54892;47.488;19.026;2022-09-27T03:52:44;98677.75;;;11.99;94.42
68107;BME280;54892;47.488;19.026;2022-09-27T03:55:47;98673.53;;;12.12;94.02
68107;BME280;54892;47.488;19.026;2022-09-27T03:58:51;98683.13;;;12.08;94.22
68107;BME280;54892;47.488;19.026;2022-09-27T04:01:54;98675.19;;;12.08;94.45
68107;BME280;54892;47.488;19.026;2022-09-27T04:04:57;98665.88;;;12.10;94.74
68107;BME280;54892;47.488;19.026;2022-09-27T04:08:02;98670.16;;;12.20;95.27
68107;BME280;54892;47.488;19.026;2022-09-27T04:11:07;98685.03;;;12.30;95.58
68107;BME280;54892;47.488;19.026;2022-09-27T04:14:10;98684.44;;;12.33;96.28
68107;BME280;54892;47.488;19.026;2022-09-27T04:17:14;98671.88;;;12.39;96.02
68107;BME280;54892;47.488;19.026;2022-09-27T04:20:18;98670.50;;;12.41;96.10
68107;BME280;54892;47.488;19.026;2022-09-27T04:23:22;98678.50;;;12.50;95.88
68107;BME280;54892;47.488;19.026;2022-09-27T04:26:28;98669.47;;;12.51;95.78
68107;BME280;54892;47.488;19.026;2022-09-27T04:29:31;98661.06;;;12.49;95.94
68107;BME280;54892;47.488;19.026;2022-09-27T04:32:39;98659.97;;;12.50;96.08
68107;BME280;54892;47.488;19.026;2022-09-27T04:35:43;98657.81;;;12.52;96.19
68107;BME280;54892;47.488;19.026;2022-09-27T04:39:06;98659.25;;;12.58;96.13
68107;BME280;54892;47.488;19.026;2022-09-27T04:42:10;98652.56;;;12.61;96.31
68107;BME280;54892;47.488;19.026;2022-09-27T04:45:14;98650.41;;;12.63;96.29
68107;BME280;54892;47.488;19.026;2022-09-27T04:48:18;98656.62;;;12.58;96.77
68107;BME280;54892;47.488;19.026;2022-09-27T04:51:21;98651.31;;;12.58;97.00
68107;BME280;54892;47.488;19.026;2022-09-27T04:54:26;98655.34;;;12.56;97.51
68107;BME280;54892;47.488;19.026;2022-09-27T04:57:30;98658.28;;;12.54;97.60
68107;BME280;54892;47.488;19.026;2022-09-27T05:00:33;98651.44;;;12.53;97.63
68107;BME280;54892;47.488;19.026;2022-09-27T05:03:37;98652.69;;;12.56;97.66
68107;BME280;54892;47.488;19.026;2022-09-27T05:06:40;98653.97;;;12.58;97.59
68107;BME280;54892;47.488;19.026;2022-09-27T05:09:44;98639.03;;;12.62;97.41
68107;BME280;54892;47.488;19.026;2022-09-27T05:12:48;98633.94;;;12.66;97.12
68107;BME280;54892;47.488;19.026;2022-09-27T05:15:52;98645.28;;;12.67;97.33
68107;BME280;54892;47.488;19.026;2022-09-27T05:18:56;98650.69;;;12.61;97.86
68107;BME280;54892;47.488;19.026;2022-09-27T05:21:59;98636.87;;;12.64;97.59
68107;BME280;54892;47.488;19.026;2022-09-27T05:25:05;98636.37;;;12.62;97.49
68107;BME280;54892;47.488;19.026;2022-09-27T05:28:08;98633.12;;;12.66;97.44
68107;BME280;54892;47.488;19.026;2022-09-27T05:31:11;98628.81;;;12.70;97.49
68107;BME280;54892;47.488;19.026;2022-09-27T05:34:15;98624.00;;;12.72;97.58
68107;BME280;54892;47.488;19.026;2022-09-27T05:37:18;98621.19;;;12.68;97.94
68107;BME280;54892;47.488;19.026;2022-09-27T05:40:23;98624.84;;;12.58;99.22
68107;BME280;54892;47.488;19.026;2022-09-27T05:43:42;98622.81;;;12.55;99.59
68107;BME280;54892;47.488;19.026;2022-09-27T05:46:47;98614.13;;;12.63;99.19
68107;BME280;54892;47.488;19.026;2022-09-27T05:49:50;98613.63;;;12.61;99.25
68107;BME280;54892;47.488;19.026;2022-09-27T05:52:54;98606.81;;;12.60;99.44
68107;BME280;54892;47.488;19.026;2022-09-27T05:56:01;98603.97;;;12.57;99.80
68107;BME280;54892;47.488;19.026;2022-09-27T05:59:05;98605.09;;;12.64;99.37
68107;BME280;54892;47.488;19.026;2022-09-27T06:02:09;98606.84;;;12.69;99.29
68107;BME280;54892;47.488;19.026;2022-09-27T06:05:12;98618.97;;;12.70;99.07
68107;BME280;54892;47.488;19.026;2022-09-27T06:08:16;98621.50;;;12.75;98.90
68107;BME280;54892;47.488;19.026;2022-09-27T06:11:22;98622.13;;;12.72;98.82
68107;BME280;54892;47.488;19.026;2022-09-27T06:14:28;98620.44;;;12.76;99.03
68107;BME280;54892;47.488;19.026;2022-09-27T06:17:32;98620.16;;;12.87;98.49
68107;BME280;54892;47.488;19.026;2022-09-27T06:20:36;98618.47;;;12.91;98.52
68107;BME280;54892;47.488;19.026;2022-09-27T06:23:39;98614.78;;;13.01;98.28
68107;BME280;54892;47.488;19.026;2022-09-27T06:26:44;98610.84;;;12.89;98.51
68107;BME280;54892;47.488;19.026;2022-09-27T06:29:48;98611.63;;;12.90;98.55
68107;BME280;54892;47.488;19.026;2022-09-27T06:32:55;98613.63;;;12.84;98.70
68107;BME280;54892;47.488;19.026;2022-09-27T06:36:00;98616.25;;;12.84;98.82
68107;BME280;54892;47.488;19.026;2022-09-27T06:39:04;98616.38;;;12.79;98.98
68107;BME280;54892;47.488;19.026;2022-09-27T06:42:09;98609.88;;;12.85;99.12
68107;BME280;54892;47.488;19.026;2022-09-27T06:45:13;98605.28;;;13.00;98.85
68107;BME280;54892;47.488;19.026;2022-09-27T06:48:16;98606.25;;;13.04;98.75
68107;BME280;54892;47.488;19.026;2022-09-27T06:51:19;98605.47;;;13.12;98.22
68107;BME280;54892;47.488;19.026;2022-09-27T06:54:23;98597.66;;;12.98;98.63
68107;BME280;54892;47.488;19.026;2022-09-27T06:57:28;98593.91;;;13.08;98.45
68107;BME280;54892;47.488;19.026;2022-09-27T07:00:50;98598.00;;;13.14;98.04
68107;BME280;54892;47.488;19.026;2022-09-27T07:03:54;98605.81;;;13.19;97.95
68107;BME280;54892;47.488;19.026;2022-09-27T07:06:58;98620.66;;;13.29;97.59
68107;BME280;54892;47.488;19.026;2022-09-27T07:10:01;98627.97;;;13.32;97.16
68107;BME280;54892;47.488;19.026;2022-09-27T07:13:09;98629.75;;;13.37;96.78
68107;BME280;54892;47.488;19.026;2022-09-27T07:16:13;98624.69;;;13.58;95.65
68107;BME280;54892;47.488;19.026;2022-09-27T07:19:16;98624.19;;;13.47;96.13
68107;BME280;54892;47.488;19.026;2022-09-27T07:22:19;98618.25;;;13.50;96.17
68107;BME280;54892;47.488;19.026;2022-09-27T07:25:23;98619.69;;;13.65;95.10
68107;BME280;54892;47.488;19.026;2022-09-27T07:28:28;98614.22;;;13.62;95.41
68107;BME280;54892;47.488;19.026;2022-09-27T07:31:31;98626.25;;;13.68;94.90
68107;BME280;54892;47.488;19.026;2022-09-27T07:34:34;98626.28;;;14.03;92.02
68107;BME280;54892;47.488;19.026;2022-09-27T07:37:38;98625.34;;;13.99;91.81
68107;BME280;54892;47.488;19.026;2022-09-27T07:40:41;98628.31;;;13.97;92.67
68107;BME280;54892;47.488;19.026;2022-09-27T07:43:46;98622.06;;;14.20;92.04
68107;BME280;54892;47.488;19.026;2022-09-27T07:46:49;98622.03;;;14.72;88.99
68107;BME280;54892;47.488;19.026;2022-09-27T07:49:52;98611.16;;;14.30;87.07
68107;BME280;54892;47.488;19.026;2022-09-27T07:52:56;98606.59;;;14.30;87.36
68107;BME280;54892;47.488;19.026;2022-09-27T07:56:00;98609.88;;;14.36;87.46
68107;BME280;54892;47.488;19.026;2022-09-27T07:59:04;98615.19;;;14.19;87.65
68107;BME280;54892;47.488;19.026;2022-09-27T08:02:10;98612.53;;;14.27;87.79
68107;BME280;54892;47.488;19.026;2022-09-27T08:05:16;98610.19;;;14.52;86.35
68107;BME280;54892;47.488;19.026;2022-09-27T08:08:19;98610.34;;;14.38;87.00
68107;BME280;54892;47.488;19.026;2022-09-27T08:11:22;98610.97;;;14.18;88.20
68107;BME280;54892;47.488;19.026;2022-09-27T08:14:27;98605.03;;;14.29;88.54
68107;BME280;54892;47.488;19.026;2022-09-27T08:17:30;98597.66;;;14.53;87.67
68107;BME280;54892;47.488;19.026;2022-09-27T08:20:33;98600.63;;;14.60;87.67
68107;BME280;54892;47.488;19.026;2022-09-27T08:23:37;98611.72;;;14.62;86.99
68107;BME280;54892;47.488;19.026;2022-09-27T08:26:40;98606.25;;;14.50;86.91
68107;BME280;54892;47.488;19.026;2022-09-27T08:29:45;98607.06;;;14.41;87.18
68107;BME280;54892;47.488;19.026;2022-09-27T08:32:48;98614.56;;;14.39;87.13
68107;BME280;54892;47.488;19.026;2022-09-27T08:35:51;98622.25;;;14.32;88.19
68107;BME280;54892;47.488;19.026;2022-09-27T08:38:54;98613.63;;;14.35;87.95
68107;BME280;54892;47.488;19.026;2022-09-27T08:42:05;98610.81;;;14.40;87.97
68107;BME280;54892;47.488;19.026;2022-09-27T08:45:17;98603.63;;;14.41;88.17
68107;BME280;54892;47.488;19.026;2022-09-27T08:48:26;98590.69;;;14.04;89.18
68107;BME280;54892;47.488;19.026;2022-09-27T08:51:31;98589.13;;;14.12;89.90
68107;BME280;54892;47.488;19.026;2022-09-27T08:54:36;98593.53;;;14.16;89.60
68107;BME280;54892;47.488;19.026;2022-09-27T08:57:39;98595.84;;;14.18;89.60
68107;BME280;54892;47.488;19.026;2022-09-27T09:00:44;98605.38;;;14.28;89.48
68107;BME280;54892;47.488;19.026;2022-09-27T09:03:50;98608.50;;;14.30;89.84
68107;BME280;54892;47.488;19.026;2022-09-27T09:07:04;98608.66;;;14.25;89.92
68107;BME280;54892;47.488;19.026;2022-09-27T09:10:24;98606.75;;;14.34;90.02
68107;BME280;54892;47.488;19.026;2022-09-27T09:14:12;98594.28;;;14.26;89.94
68107;BME280;54892;47.488;19.026;2022-09-27T09:17:32;98584.91;;;14.20;90.69
68107;BME280;54892;47.488;19.026;2022-09-27T09:20:50;98585.84;;;14.24;90.54
68107;BME280;54892;47.488;19.026;2022-09-27T09:24:06;98576.81;;;14.25;90.80
68107;BME280;54892;47.488;19.026;2022-09-27T09:27:17;98572.72;;;14.27;91.13
68107;BME280;54892;47.488;19.026;2022-09-27T09:30:33;98553.53;;;14.30;90.98
68107;BME280;54892;47.488;19.026;2022-09-27T09:33:40;98548.09;;;14.09;92.75
68107;BME280;54892;47.488;19.026;2022-09-27T09:36:50;98551.19;;;14.29;92.52
68107;BME280;54892;47.488;19.026;2022-09-27T09:40:00;98546.50;;;14.26;92.88
68107;BME280;54892;47.488;19.026;2022-09-27T09:43:12;98558.84;;;14.22;93.98
68107;BME280;54892;47.488;19.026;2022-09-27T09:46:21;98554.16;;;14.27;94.30
68107;BME280;54892;47.488;19.026;2022-09-27T09:49:28;98551.78;;;14.43;94.06
68107;BME280;54892;47.488;19.026;2022-09-27T09:52:39;98545.41;;;14.36;94.24
68107;BME280;54892;47.488;19.026;2022-09-27T09:55:48;98542.75;;;14.36;94.53
68107;BME280;54892;47.488;19.026;2022-09-27T09:58:56;98543.53;;;14.36;94.87
68107;BME280;54892;47.488;19.026;2022-09-27T10:02:18;98543.84;;;14.35;95.16
68107;BME280;54892;47.488;19.026;2022-09-27T10:05:26;98541.81;;;14.40;94.91
68107;BME280;54892;47.488;19.026;2022-09-27T10:08:29;98537.56;;;14.48;94.09
68107;BME280;54892;47.488;19.026;2022-09-27T10:11:38;98536.81;;;14.48;94.26
68107;BME280;54892;47.488;19.026;2022-09-27T10:14:43;98538.66;;;14.47;94.97
68107;BME280;54892;47.488;19.026;2022-09-27T10:17:50;98528.66;;;14.53;95.07
68107;BME280;54892;47.488;19.026;2022-09-27T10:20:58;98526.91;;;14.57;94.39
68107;BME280;54892;47.488;19.026;2022-09-27T10:24:08;98515.22;;;14.49;95.12
68107;BME280;54892;47.488;19.026;2022-09-27T10:27:16;98510.69;;;14.50;95.12
68107;BME280;54892;47.488;19.026;2022-09-27T10:30:26;98510.06;;;14.53;95.17
68107;BME280;54892;47.488;19.026;2022-09-27T10:33:30;98507.87;;;14.55;95.39
68107;BME280;54892;47.488;19.026;2022-09-27T10:36:35;98509.09;;;14.57;95.71
68107;BME280;54892;47.488;19.026;2022-09-27T10:39:39;98504.59;;;14.58;95.52
68107;BME280;54892;47.488;19.026;2022-09-27T10:42:43;98500.84;;;14.59;95.66
68107;BME280;54892;47.488;19.026;2022-09-27T10:45:47;98498.78;;;14.65;95.47
68107;BME280;54892;47.488;19.026;2022-09-27T10:49:07;98500.34;;;14.66;95.69
68107;BME280;54892;47.488;19.026;2022-09-27T10:52:16;98497.84;;;14.69;95.61
68107;BME280;54892;47.488;19.026;2022-09-27T10:55:21;98494.56;;;14.72;95.38
68107;BME280;54892;47.488;19.026;2022-09-27T10:58:28;98494.50;;;14.81;95.10
68107;BME280;54892;47.488;19.026;2022-09-27T11:01:41;98493.41;;;14.82;95.29
68107;BME280;54892;47.488;19.026;2022-09-27T11:05:01;98491.25;;;14.75;95.65
68107;BME280;54892;47.488;19.026;2022-09-27T11:08:22;98487.31;;;14.82;94.80
68107;BME280;54892;47.488;19.026;2022-09-27T11:11:27;98481.91;;;14.60;95.83
68107;BME280;54892;47.488;19.026;2022-09-27T11:14:31;98485.94;;;14.75;94.92
68107;BME280;54892;47.488;19.026;2022-09-27T11:17:39;98474.88;;;14.73;95.44
68107;BME280;54892;47.488;19.026;2022-09-27T11:20:50;98469.22;;;14.75;96.02
68107;BME280;54892;47.488;19.026;2022-09-27T11:24:05;98467.16;;;14.81;96.33
68107;BME280;54892;47.488;19.026;2022-09-27T11:27:17;98463.94;;;14.96;95.82
68107;BME280;54892;47.488;19.026;2022-09-27T11:30:29;98466.94;;;14.95;95.22
68107;BME280;54892;47.488;19.026;2022-09-27T11:34:03;98462.84;;;14.97;94.56
68107;BME280;54892;47.488;19.026;2022-09-27T11:37:14;98448.88;;;15.09;94.28
68107;BME280;54892;47.488;19.026;2022-09-27T11:40:30;98450.78;;;15.09;94.58
68107;BME280;54892;47.488;19.026;2022-09-27T11:43:46;98444.66;;;15.29;93.80
68107;BME280;54892;47.488;19.026;2022-09-27T11:47:00;98438.91;;;15.48;93.03
68107;BME280;54892;47.488;19.026;2022-09-27T11:50:22;98433.59;;;15.48;92.38
68107;BME280;54892;47.488;19.026;2022-09-27T11:53:38;98429.28;;;15.56;91.65
68107;BME280;54892;47.488;19.026;2022-09-27T11:56:55;98428.84;;;15.54;91.27
68107;BME280;54892;47.488;19.026;2022-09-27T12:00:23;98415.81;;;15.40;91.89
68107;BME280;54892;47.488;19.026;2022-09-27T12:04:06;98415.28;;;15.47;92.51
68107;BME280;54892;47.488;19.026;2022-09-27T12:07:19;98417.44;;;15.32;93.67
68107;BME280;54892;47.488;19.026;2022-09-27T12:10:25;98408.56;;;15.28;93.81
68107;BME280;54892;47.488;19.026;2022-09-27T12:13:33;98399.53;;;15.42;93.08
68107;BME280;54892;47.488;19.026;2022-09-27T12:16:39;98395.34;;;15.41;93.74
68107;BME280;54892;47.488;19.026;2022-09-27T12:19:45;98395.16;;;15.58;93.63
68107;BME280;54892;47.488;19.026;2022-09-27T12:22:56;98395.41;;;15.65;92.66
68107;BME280;54892;47.488;19.026;2022-09-27T12:26:05;98392.41;;;15.67;92.25
68107;BME280;54892;47.488;19.026;2022-09-27T12:29:15;98389.81;;;15.58;92.80
68107;BME280;54892;47.488;19.026;2022-09-27T12:32:23;98381.00;;;15.66;91.85
68107;BME280;54892;47.488;19.026;2022-09-27T12:35:31;98377.78;;;15.61;92.50
68107;BME280;54892;47.488;19.026;2022-09-27T12:38:39;98380.34;;;15.70;91.40
68107;BME280;54892;47.488;19.026;2022-09-27T12:41:49;98377.75;;;15.48;92.30
68107;BME280;54892;47.488;19.026;2022-09-27T12:44:54;98374.75;;;15.50;92.63
68107;BME280;54892;47.488;19.026;2022-09-27T12:48:04;98385.56;;;15.45;93.55
68107;BME280;54892;47.488;19.026;2022-09-27T12:51:12;98381.25;;;15.40;94.28
68107;BME280;54892;47.488;19.026;2022-09-27T12:54:41;98373.38;;;15.44;94.88
68107;BME280;54892;47.488;19.026;2022-09-27T12:58:05;98360.81;;;15.53;96.38
68107;BME280;54892;47.488;19.026;2022-09-27T13:01:24;98362.69;;;15.86;94.68
68107;BME280;54892;47.488;19.026;2022-09-27T13:04:57;98355.37;;;16.08;94.94
68107;BME280;54892;47.488;19.026;2022-09-27T13:08:21;98349.38;;;16.23;92.27
68107;BME280;54892;47.488;19.026;2022-09-27T13:11:38;98357.38;;;16.23;91.98
68107;BME280;54892;47.488;19.026;2022-09-27T13:14:53;98358.94;;;16.12;92.03
68107;BME280;54892;47.488;19.026;2022-09-27T13:18:02;98351.03;;;16.03;92.42
68107;BME280;54892;47.488;19.026;2022-09-27T13:21:08;98342.28;;;16.03;92.97
68107;BME280;54892;47.488;19.026;2022-09-27T13:24:30;98336.62;;;16.04;93.36
68107;BME280;54892;47.488;19.026;2022-09-27T13:27:37;98344.06;;;16.11;93.29
68107;BME280;54892;47.488;19.026;2022-09-27T13:30:45;98337.88;;;16.19;93.13
68107;BME280;54892;47.488;19.026;2022-09-27T13:33:51;98342.28;;;16.27;93.02
68107;BME280;54892;47.488;19.026;2022-09-27T13:36:54;98338.63;;;16.32;93.03
68107;BME280;54892;47.488;19.026;2022-09-27T13:40:10;98333.84;;;16.38;91.07
68107;BME280;54892;47.488;19.026;2022-09-27T13:46:46;98335.28;;;16.35;89.45
68107;BME280;54892;47.488;19.026;2022-09-27T13:49:58;98323.97;;;16.38;88.77
68107;BME280;54892;47.488;19.026;2022-09-27T13:53:07;98317.53;;;16.39;89.35
68107;BME280;54892;47.488;19.026;2022-09-27T13:56:48;98313.44;;;16.42;89.77
68107;BME280;54892;47.488;19.026;2022-09-27T13:59:53;98317.19;;;16.41;89.14
68107;BME280;54892;47.488;19.026;2022-09-27T14:03:00;98326.63;;;16.51;86.38
68107;BME280;54892;47.488;19.026;2022-09-27T14:06:07;98329.94;;;16.48;85.58
68107;BME280;54892;47.488;19.026;2022-09-27T14:09:17;98322.75;;;16.36;86.80
68107;BME280;54892;47.488;19.026;2022-09-27T14:12:27;98355.84;;;16.35;87.39
68107;BME280;54892;47.488;19.026;2022-09-27T14:15:31;98373.56;;;16.31;77.46
68107;BME280;54892;47.488;19.026;2022-09-27T14:18:35;98365.84;;;15.79;78.91
68107;BME280;54892;47.488;19.026;2022-09-27T14:21:47;98372.50;;;15.40;80.61
68107;BME280;54892;47.488;19.026;2022-09-27T14:24:51;98374.47;;;15.09;83.81
68107;BME280;54892;47.488;19.026;2022-09-27T14:27:55;98381.12;;;14.73;89.02
68107;BME280;54892;47.488;19.026;2022-09-27T14:31:05;98376.97;;;14.63;87.98
68107;BME280;54892;47.488;19.026;2022-09-27T14:34:11;98369.72;;;14.42;88.47
68107;BME280;54892;47.488;19.026;2022-09-27T14:37:21;98366.09;;;14.47;88.64
68107;BME280;54892;47.488;19.026;2022-09-27T14:40:29;98370.81;;;14.41;90.01
68107;BME280;54892;47.488;19.026;2022-09-27T14:43:42;98384.72;;;14.38;89.67
68107;BME280;54892;47.488;19.026;2022-09-27T14:46:46;98377.31;;;14.23;88.81
68107;BME280;54892;47.488;19.026;2022-09-27T14:49:52;98370.50;;;14.04;88.76
68107;BME280;54892;47.488;19.026;2022-09-27T14:52:57;98382.97;;;14.12;89.01
68107;BME280;54892;47.488;19.026;2022-09-27T14:56:02;98404.78;;;14.27;89.62
68107;BME280;54892;47.488;19.026;2022-09-27T14:59:12;98379.22;;;14.13;90.56
68107;BME280;54892;47.488;19.026;2022-09-27T15:02:18;98386.75;;;14.03;88.88
68107;BME280;54892;47.488;19.026;2022-09-27T15:05:24;98386.38;;;14.22;90.23
68107;BME280;54892;47.488;19.026;2022-09-27T15:08:29;98390.59;;;14.14;89.33
68107;BME280;54892;47.488;19.026;2022-09-27T15:11:35;98381.91;;;14.05;89.79
68107;BME280;54892;47.488;19.026;2022-09-27T15:14:39;98399.66;;;14.13;87.87
68107;BME280;54892;47.488;19.026;2022-09-27T15:17:43;98395.34;;;14.38;86.65
68107;BME280;54892;47.488;19.026;2022-09-27T15:20:52;98398.91;;;14.12;80.91
68107;BME280;54892;47.488;19.026;2022-09-27T15:23:57;98395.63;;;14.15;81.53
68107;BME280;54892;47.488;19.026;2022-09-27T15:27:00;98394.44;;;13.86;77.77
68107;BME280;54892;47.488;19.026;2022-09-27T15:30:04;98393.09;;;13.63;77.12
68107;BME280;54892;47.488;19.026;2022-09-27T15:33:20;98394.19;;;13.35;77.73
68107;BME280;54892;47.488;19.026;2022-09-27T15:36:49;98401.22;;;13.31;78.59
68107;BME280;54892;47.488;19.026;2022-09-27T15:39:54;98402.91;;;13.01;79.19
68107;BME280;54892;47.488;19.026;2022-09-27T15:43:00;98403.84;;;13.05;80.14
68107;BME280;54892;47.488;19.026;2022-09-27T15:46:07;98411.31;;;12.85;79.82
68107;BME280;54892;47.488;19.026;2022-09-27T15:49:27;98427.50;;;12.92;80.55
68107;BME280;54892;47.488;19.026;2022-09-27T15:52:39;98423.59;;;12.81;79.40
68107;BME280;54892;47.488;19.026;2022-09-27T15:55:45;98425.63;;;12.84;80.31
68107;BME280;54892;47.488;19.026;2022-09-27T15:58:48;98430.16;;;12.92;79.40
68107;BME280;54892;47.488;19.026;2022-09-27T16:01:54;98438.75;;;12.98;78.75
68107;BME280;54892;47.488;19.026;2022-09-27T16:04:58;98450.69;;;12.87;77.94
68107;BME280;54892;47.488;19.026;2022-09-27T16:08:01;98448.22;;;12.90;77.92
68107;BME280;54892;47.488;19.026;2022-09-27T16:11:09;98454.63;;;12.89;77.43
68107;BME280;54892;47.488;19.026;2022-09-27T16:14:14;98459.59;;;12.91;77.59
68107;BME280;54892;47.488;19.026;2022-09-27T16:17:19;98470.81;;;12.97;77.84
68107;BME280;54892;47.488;19.026;2022-09-27T16:20:24;98470.97;;;12.91;78.30
68107;BME280;54892;47.488;19.026;2022-09-27T16:23:27;98466.94;;;13.03;79.16
68107;BME280;54892;47.488;19.026;2022-09-27T16:26:32;98461.66;;;13.03;80.20
68107;BME280;54892;47.488;19.026;2022-09-27T16:29:35;98472.50;;;12.92;81.03